Time;durP1;ratioP1;P1;durP2;ratioP2;P2;SDS_P1;SDS_P2;PMS_P1;PMS_P2;Temp;Humidity;BMP_temperature;BMP_pressure;BME280_temperature;BME280_humidity;BME280_pressure;Samples;Min_cycle;Max_cycle;Signal;HPM_P1;HPM_P2
2023/06/29 00:01:00;;;;;;;3.08;0.80;;;;;;;13.50;100.00;100858.59;4974035;28;20044;-82
2023/06/29 00:03:25;;;;;;;4.95;0.93;;;;;;;13.49;100.00;100859.53;5004831;28;20034;-82
2023/06/29 00:05:55;;;;;;;4.05;0.63;;;;;;;13.48;100.00;100867.63;4943290;28;20054;-83
2023/06/29 00:08:23;;;;;;;5.70;0.75;;;;;;;13.45;100.00;100866.13;4946076;28;20033;-82
2023/06/29 00:10:53;;;;;;;1.52;0.60;;;;;;;13.25;100.00;100862.81;4960325;28;20065;-82
2023/06/29 00:13:19;;;;;;;4.93;0.93;;;;;;;13.12;100.00;100871.97;4976452;28;20556;-82
2023/06/29 00:15:46;;;;;;;9.55;1.20;;;;;;;13.07;100.00;100865.44;4975980;28;20125;-82
2023/06/29 00:18:15;;;;;;;5.95;0.80;;;;;;;13.01;100.00;100864.25;4974440;28;20138;-82
2023/06/29 00:20:42;;;;;;;4.53;0.80;;;;;;;12.98;100.00;100865.34;4962115;28;20043;-82
2023/06/29 00:23:09;;;;;;;5.82;0.60;;;;;;;12.95;100.00;100860.34;4945797;28;20038;-82
2023/06/29 00:25:35;;;;;;;7.93;0.68;;;;;;;12.96;100.00;100866.50;4961513;28;20034;-82
2023/06/29 00:28:02;;;;;;;3.63;0.70;;;;;;;12.98;100.00;100865.34;4961137;28;20069;-82
2023/06/29 00:30:28;;;;;;;4.80;0.80;;;;;;;13.03;100.00;100873.72;4994683;28;20034;-82
2023/06/29 00:32:54;;;;;;;3.78;1.00;;;;;;;13.03;100.00;100875.50;4983022;28;20022;-83
2023/06/29 00:35:19;;;;;;;3.72;0.85;;;;;;;13.05;100.00;100872.72;4965348;28;20041;-83
2023/06/29 00:37:45;;;;;;;5.75;1.08;;;;;;;13.09;100.00;100876.75;4948923;28;20361;-82
2023/06/29 00:40:11;;;;;;;5.97;0.70;;;;;;;13.06;100.00;100866.44;4967393;28;20112;-82
2023/06/29 00:42:37;;;;;;;3.88;0.90;;;;;;;13.04;100.00;100871.91;4991850;28;20038;-81
2023/06/29 00:45:04;;;;;;;5.75;0.80;;;;;;;12.99;100.00;100866.19;4965122;28;20042;-82
2023/06/29 00:47:32;;;;;;;6.25;1.40;;;;;;;12.97;100.00;100863.69;5001088;28;20037;-82
2023/06/29 00:50:04;;;;;;;6.90;1.48;;;;;;;12.95;100.00;100860.34;4975868;28;20097;-81
2023/06/29 00:52:30;;;;;;;4.40;0.75;;;;;;;12.90;100.00;100865.25;4976098;28;20042;-82
2023/06/29 00:54:58;;;;;;;5.43;0.63;;;;;;;12.88;100.00;100867.25;4953637;28;20560;-82
2023/06/29 00:57:24;;;;;;;2.05;0.68;;;;;;;12.89;100.00;100866.25;4941028;28;20066;-83
2023/06/29 00:59:50;;;;;;;5.47;0.70;;;;;;;12.90;100.00;100866.09;4928038;28;20066;-83
2023/06/29 01:02:17;;;;;;;2.13;0.68;;;;;;;12.88;100.00;100869.91;4944061;28;20520;-82
2023/06/29 01:04:47;;;;;;;7.57;1.13;;;;;;;12.86;100.00;100869.22;4922179;29;20054;-83
2023/06/29 01:07:28;;;;;;;5.57;0.70;;;;;;;12.85;100.00;100871.00;4941117;28;20541;-83
2023/06/29 01:09:56;;;;;;;7.80;0.98;;;;;;;12.75;100.00;100868.44;4933764;28;20514;-82
2023/06/29 01:12:24;;;;;;;5.38;0.73;;;;;;;12.69;100.00;100871.69;4940546;28;20182;-81
2023/06/29 01:14:51;;;;;;;6.35;1.25;;;;;;;12.61;100.00;100866.28;4924221;28;20172;-82
2023/06/29 01:17:22;;;;;;;5.03;0.98;;;;;;;12.57;100.00;100864.88;4899773;28;20046;-82
2023/06/29 01:19:50;;;;;;;4.60;0.50;;;;;;;12.46;100.00;100869.41;4965794;28;20112;-83
2023/06/29 01:22:27;;;;;;;8.50;1.23;;;;;;;12.38;100.00;100878.09;4938931;29;20390;-83
2023/06/29 01:24:54;;;;;;;3.17;0.82;;;;;;;12.31;100.00;100871.69;4932813;28;20030;-82
2023/06/29 01:27:21;;;;;;;4.68;0.88;;;;;;;12.26;100.00;100874.78;4952362;28;20031;-82
2023/06/29 01:29:47;;;;;;;6.15;0.88;;;;;;;12.26;100.00;100873.97;4936822;28;20569;-81
2023/06/29 01:32:14;;;;;;;3.50;0.70;;;;;;;12.25;100.00;100878.41;4953103;28;20031;-83
2023/06/29 01:34:40;;;;;;;7.97;1.35;;;;;;;12.24;100.00;100881.22;4924215;28;20383;-82
2023/06/29 01:37:22;;;;;;;6.38;1.27;;;;;;;12.23;100.00;100882.19;4939138;28;20039;-82
2023/06/29 01:40:00;;;;;;;6.03;0.80;;;;;;;12.20;100.00;100878.00;4940101;28;20037;-82
2023/06/29 01:42:26;;;;;;;3.95;0.80;;;;;;;12.19;100.00;100880.81;4982611;28;20497;-82
2023/06/29 01:44:54;;;;;;;5.15;0.60;;;;;;;12.19;100.00;100879.00;4974343;28;20469;-83
2023/06/29 01:47:21;;;;;;;4.50;0.90;;;;;;;12.15;100.00;100875.78;4964551;28;20108;-81
2023/06/29 01:49:48;;;;;;;6.30;0.82;;;;;;;12.19;100.00;100875.50;4958321;28;20062;-83
2023/06/29 01:52:15;;;;;;;8.52;1.25;;;;;;;12.21;100.00;100879.69;4956293;28;20070;-82
2023/06/29 01:54:41;;;;;;;4.75;0.60;;;;;;;12.22;100.00;100885.81;4955295;28;20045;-82
2023/06/29 01:57:08;;;;;;;5.95;0.90;;;;;;;12.26;100.00;100874.78;4957414;28;20038;-82
2023/06/29 01:59:34;;;;;;;4.30;0.90;;;;;;;12.26;100.00;100877.44;4921431;29;20046;-82
2023/06/29 02:02:01;;;;;;;8.20;0.60;;;;;;;12.25;100.00;100885.53;4962185;28;20096;-82
2023/06/29 02:04:27;;;;;;;6.82;1.00;;;;;;;12.20;100.00;100882.50;4942707;28;20031;-83
2023/06/29 02:06:53;;;;;;;3.47;0.70;;;;;;;12.12;100.00;100880.56;4976350;28;20043;-83
2023/06/29 02:09:18;;;;;;;5.45;0.88;;;;;;;12.08;100.00;100872.06;4942247;28;20031;-83
2023/06/29 02:11:44;;;;;;;5.85;0.75;;;;;;;12.04;100.00;100870.63;4971702;28;20031;-82
2023/06/29 02:14:10;;;;;;;3.45;0.60;;;;;;;12.06;100.00;100881.06;4941550;28;20397;-83
2023/06/29 02:16:36;;;;;;;3.60;1.58;;;;;;;12.07;100.00;100878.28;4923094;28;20046;-83
2023/06/29 02:19:02;;;;;;;3.17;0.70;;;;;;;12.05;100.00;100872.31;4941268;28;20031;-83
2023/06/29 02:21:28;;;;;;;3.63;0.68;;;;;;;12.01;100.00;100874.41;4947844;28;20405;-82
2023/06/29 02:23:54;;;;;;;3.67;0.70;;;;;;;12.00;100.00;100877.19;4970785;28;20050;-82
2023/06/29 02:26:20;;;;;;;4.40;0.82;;;;;;;11.97;100.00;100867.72;4954523;28;20381;-83
2023/06/29 02:28:46;;;;;;;10.07;1.00;;;;;;;12.02;100.00;100865.47;4967428;28;20100;-82
2023/06/29 02:31:13;;;;;;;2.92;0.65;;;;;;;12.06;100.00;100867.81;4957769;28;20030;-81
2023/06/29 02:33:39;;;;;;;6.43;0.55;;;;;;;12.11;100.00;100871.78;4939178;28;20085;-81
2023/06/29 02:36:05;;;;;;;9.85;1.23;;;;;;;12.14;100.00;100867.97;4944440;28;20038;-82
2023/06/29 02:38:31;;;;;;;5.25;0.50;;;;;;;12.18;100.00;100869.38;4940853;28;20042;-82
2023/06/29 02:40:57;;;;;;;3.42;0.70;;;;;;;12.21;100.00;100869.09;4931815;28;20038;-80
2023/06/29 02:43:23;;;;;;;4.45;0.88;;;;;;;12.18;100.00;100861.44;4983356;28;20027;-82
2023/06/29 02:45:49;;;;;;;5.40;0.85;;;;;;;12.20;100.00;100869.25;4937746;28;20046;-83
2023/06/29 02:48:16;;;;;;;2.78;0.60;;;;;;;12.14;100.00;100862.69;4941015;28;20038;-82
2023/06/29 02:50:43;;;;;;;4.57;0.85;;;;;;;12.11;100.00;100869.13;4948122;28;20564;-82
2023/06/29 02:53:11;;;;;;;5.50;0.70;;;;;;;12.07;100.00;100865.03;4942995;28;20050;-82
2023/06/29 02:55:37;;;;;;;5.43;1.08;;;;;;;12.03;100.00;100867.16;4941925;28;20042;-82
2023/06/29 02:58:03;;;;;;;3.53;1.38;;;;;;;11.97;100.00;100869.53;4943008;28;20423;-82
2023/06/29 03:00:29;;;;;;;2.08;0.60;;;;;;;11.89;100.00;100865.81;4963057;28;20034;-81
2023/06/29 03:02:55;;;;;;;4.45;0.68;;;;;;;11.85;100.00;100879.47;4946908;28;20045;-81
2023/06/29 03:05:21;;;;;;;6.25;0.60;;;;;;;11.79;100.00;100872.91;4946932;28;20030;-81
2023/06/29 03:07:47;;;;;;;8.60;1.10;;;;;;;11.80;100.00;100877.25;4979968;28;20037;-83
2023/06/29 03:10:13;;;;;;;8.07;1.00;;;;;;;11.74;100.00;100888.38;4962737;28;20034;-83
2023/06/29 03:12:38;;;;;;;3.88;0.82;;;;;;;11.66;100.00;100889.94;4951079;28;20034;-83
2023/06/29 03:15:05;;;;;;;3.67;0.90;;;;;;;11.63;100.00;100873.47;4959024;28;20084;-83
2023/06/29 03:17:32;;;;;;;9.05;1.15;;;;;;;11.60;100.00;100876.41;4974013;28;20030;-83
2023/06/29 03:19:58;;;;;;;5.88;0.82;;;;;;;11.60;100.00;100879.91;4964631;28;20042;-82
2023/06/29 03:22:26;;;;;;;3.20;0.85;;;;;;;11.64;100.00;100872.53;4963118;28;20041;-82
2023/06/29 03:24:52;;;;;;;7.57;1.08;;;;;;;11.66;100.00;100871.41;4989179;28;20042;-81
2023/06/29 03:27:19;;;;;;;5.35;1.00;;;;;;;11.69;100.00;100877.41;4942725;28;20038;-81
2023/06/29 03:29:49;;;;;;;1.95;0.82;;;;;;;11.72;100.00;100880.59;4952391;28;20101;-81
2023/06/29 03:32:15;;;;;;;7.25;0.88;;;;;;;11.73;100.00;100884.91;4967617;28;20045;-82
2023/06/29 03:34:41;;;;;;;5.40;1.02;;;;;;;11.76;100.00;100878.50;4976895;28;20035;-81
2023/06/29 03:37:07;;;;;;;6.03;0.93;;;;;;;11.73;100.00;100874.31;4974454;28;20169;-81
2023/06/29 03:39:33;;;;;;;4.72;0.70;;;;;;;11.68;100.00;100865.97;4971382;28;20385;-81
2023/06/29 03:41:59;;;;;;;13.32;0.90;;;;;;;11.65;100.00;100874.19;4963942;28;20125;-82
2023/06/29 03:44:25;;;;;;;5.13;0.65;;;;;;;11.64;100.00;100869.88;4972270;28;20042;-82
2023/06/29 03:46:51;;;;;;;4.15;1.13;;;;;;;11.65;100.00;100882.97;4996380;28;20046;-81
2023/06/29 03:49:17;;;;;;;8.32;0.70;;;;;;;11.64;100.00;100877.81;4977618;28;20041;-82
2023/06/29 03:51:43;;;;;;;3.65;0.88;;;;;;;11.66;100.00;100876.69;4959863;28;20038;-81
2023/06/29 03:54:09;;;;;;;3.90;0.65;;;;;;;11.68;100.00;100870.41;4954528;28;20050;-81
2023/06/29 03:56:34;;;;;;;3.20;0.65;;;;;;;11.66;100.00;100870.56;4979481;28;20071;-82
2023/06/29 03:59:00;;;;;;;5.20;1.35;;;;;;;11.61;100.00;100864.88;4954251;28;20047;-82
2023/06/29 04:01:26;;;;;;;3.13;0.70;;;;;;;11.57;100.00;100861.66;4957531;28;20049;-83
2023/06/29 04:03:53;;;;;;;6.05;0.75;;;;;;;11.48;100.00;100862.50;4982132;28;20045;-82
2023/06/29 04:06:19;;;;;;;5.30;1.02;;;;;;;11.41;100.00;100860.41;4969329;28;20807;-82
2023/06/29 04:08:44;;;;;;;6.38;0.93;;;;;;;11.28;100.00;100857.19;4956596;28;20081;-82
2023/06/29 04:11:12;;;;;;;5.47;0.68;;;;;;;11.19;100.00;100861.53;4957372;28;20034;-82
2023/06/29 04:13:38;;;;;;;4.00;0.70;;;;;;;11.12;100.00;100865.66;4989837;28;20066;-83
2023/06/29 04:16:04;;;;;;;4.57;0.80;;;;;;;11.08;100.00;100865.13;4955223;28;20031;-82
2023/06/29 04:18:29;;;;;;;6.82;0.93;;;;;;;11.05;100.00;100868.06;4972593;28;20401;-82
2023/06/29 04:20:55;;;;;;;5.75;1.67;;;;;;;11.02;100.00;100860.41;4965224;28;20031;-82
2023/06/29 04:23:21;;;;;;;8.88;1.15;;;;;;;11.00;100.00;100863.19;4941421;28;20049;-82
2023/06/29 04:25:47;;;;;;;5.85;0.77;;;;;;;11.04;100.00;100869.00;4989057;28;20540;-82
2023/06/29 04:28:13;;;;;;;3.00;0.77;;;;;;;11.04;100.00;100864.56;4984974;28;20038;-82
2023/06/29 04:30:40;;;;;;;2.15;0.55;;;;;;;11.07;100.00;100865.28;4963854;28;20037;-82
2023/06/29 04:33:10;;;;;;;3.05;1.10;;;;;;;11.04;100.00;100867.22;4990320;28;20462;-82
2023/06/29 04:35:43;;;;;;;5.03;1.05;;;;;;;11.08;100.00;100870.44;4953681;28;20070;-81
2023/06/29 04:38:10;;;;;;;3.13;0.80;;;;;;;11.09;100.00;100869.44;4951886;28;20045;-82
2023/06/29 04:40:37;;;;;;;9.50;0.93;;;;;;;11.07;100.00;100873.22;4965303;28;20034;-81
2023/06/29 04:43:03;;;;;;;5.35;1.08;;;;;;;11.03;100.00;100876.13;4959502;28;20548;-81
2023/06/29 04:45:31;;;;;;;2.13;0.80;;;;;;;11.01;100.00;100866.63;4969174;28;20089;-81
2023/06/29 04:47:58;;;;;;;2.22;0.80;;;;;;;11.01;100.00;100861.34;4952977;28;20156;-82
2023/06/29 04:50:30;;;;;;;5.03;0.70;;;;;;;11.00;100.00;100867.63;4953302;28;20494;-81
2023/06/29 04:52:58;;;;;;;7.10;1.20;;;;;;;10.97;100.00;100874.03;4972618;28;20494;-82
2023/06/29 04:55:25;;;;;;;4.25;0.70;;;;;;;10.97;100.00;100875.81;4981805;28;20035;-81
2023/06/29 04:57:51;;;;;;;1.52;0.60;;;;;;;11.01;100.00;100880.72;4968284;28;20473;-80
2023/06/29 05:00:19;;;;;;;3.38;1.05;;;;;;;11.01;100.00;100867.47;4965549;28;20049;-82
2023/06/29 05:02:46;;;;;;;4.45;0.77;;;;;;;10.96;100.00;100874.97;4955787;28;20042;-82
2023/06/29 05:05:12;;;;;;;3.00;0.70;;;;;;;11.01;100.00;100874.56;4964627;28;20401;-81
2023/06/29 05:07:38;;;;;;;2.92;0.80;;;;;;;11.06;100.00;100874.16;4957584;28;20042;-81
2023/06/29 05:10:05;;;;;;;6.10;1.35;;;;;;;11.13;100.00;100875.31;4984699;28;20083;-82
2023/06/29 05:12:31;;;;;;;2.15;0.80;;;;;;;11.18;100.00;100877.53;4943447;28;20038;-81
2023/06/29 05:14:57;;;;;;;4.55;0.88;;;;;;;11.22;100.00;100885.06;4959061;28;20038;-81
2023/06/29 05:17:22;;;;;;;3.20;0.90;;;;;;;11.23;100.00;100885.88;4961641;28;20030;-81
2023/06/29 05:19:48;;;;;;;7.88;1.38;;;;;;;11.25;100.00;100889.22;4991604;28;20068;-81
2023/06/29 05:22:14;;;;;;;4.60;0.80;;;;;;;11.25;100.00;100886.56;4962247;28;20038;-80
2023/06/29 05:24:41;;;;;;;6.35;0.60;;;;;;;11.25;100.00;100884.78;4970936;28;20023;-82
2023/06/29 05:27:08;;;;;;;4.97;1.08;;;;;;;11.24;100.00;100885.75;4973523;28;20034;-81
2023/06/29 05:29:35;;;;;;;3.45;0.77;;;;;;;11.24;100.00;100884.91;4956602;28;20037;-82
2023/06/29 05:32:01;;;;;;;5.18;0.82;;;;;;;11.31;100.00;100890.50;4978531;28;20046;-83
2023/06/29 05:34:27;;;;;;;7.50;1.05;;;;;;;11.37;100.00;100885.47;4978387;28;20393;-82
2023/06/29 05:36:53;;;;;;;14.23;1.08;;;;;;;11.44;100.00;100888.41;4952503;28;20049;-81
2023/06/29 05:39:18;;;;;;;3.75;0.70;;;;;;;11.51;100.00;100889.53;4989790;28;20030;-83
2023/06/29 05:41:44;;;;;;;4.75;0.75;;;;;;;11.56;100.00;100882.97;4974899;28;20442;-82
2023/06/29 05:44:10;;;;;;;5.88;1.15;;;;;;;11.62;100.00;100896.50;4974213;28;20033;-81
2023/06/29 05:46:36;;;;;;;3.58;1.70;;;;;;;11.63;100.00;100895.50;4960148;28;20026;-81
2023/06/29 05:49:03;;;;;;;1.10;0.40;;;;;;;11.70;100.00;100894.94;4946787;28;20196;-82
2023/06/29 05:51:29;;;;;;;3.35;0.70;;;;;;;11.74;100.00;100901.63;4969111;28;20117;-82
2023/06/29 05:53:55;;;;;;;5.28;0.68;;;;;;;11.82;100.00;100891.16;4946243;28;20440;-82
2023/06/29 05:56:21;;;;;;;4.47;0.70;;;;;;;11.86;100.00;100891.72;4951795;28;20043;-81
2023/06/29 05:58:47;;;;;;;5.90;0.98;;;;;;;11.87;100.00;100885.44;4954022;28;20274;-81
2023/06/29 06:01:13;;;;;;;6.45;1.40;;;;;;;11.92;100.00;100888.50;4971120;28;20422;-81
2023/06/29 06:03:39;;;;;;;3.47;0.88;;;;;;;11.97;100.00;100894.22;4952897;28;20178;-81
2023/06/29 06:06:05;;;;;;;4.40;0.80;;;;;;;12.03;100.00;100896.31;4951281;28;20035;-82
2023/06/29 06:08:32;;;;;;;1.90;0.70;;;;;;;12.06;100.00;100894.31;4975837;28;20031;-80
2023/06/29 06:10:58;;;;;;;5.55;0.95;;;;;;;12.13;100.00;100893.66;4980289;28;20030;-81
2023/06/29 06:13:24;;;;;;;5.30;1.30;;;;;;;12.18;100.00;100893.22;4952601;28;20035;-81
2023/06/29 06:15:50;;;;;;;5.90;0.93;;;;;;;12.24;100.00;100883.88;4961680;28;20070;-81
2023/06/29 06:18:16;;;;;;;4.47;0.98;;;;;;;12.28;100.00;100888.72;4955987;28;20027;-81
2023/06/29 06:20:42;;;;;;;4.35;1.17;;;;;;;12.28;100.00;100891.38;4974069;28;20039;-81
2023/06/29 06:23:07;;;;;;;13.00;1.02;;;;;;;12.32;100.00;100893.75;4977090;28;20038;-82
2023/06/29 06:25:33;;;;;;;6.28;1.85;;;;;;;12.36;100.00;100895.94;4962831;28;20053;-82
2023/06/29 06:27:59;;;;;;;4.10;0.98;;;;;;;12.40;100.00;100891.22;4967586;28;20046;-82
2023/06/29 06:30:25;;;;;;;4.80;1.00;;;;;;;12.47;100.00;100894.13;4960161;28;20038;-81
2023/06/29 06:32:51;;;;;;;3.05;0.98;;;;;;;12.52;100.00;100900.63;4971774;28;20393;-82
2023/06/29 06:35:17;;;;;;;10.05;1.20;;;;;;;12.56;100.00;100903.00;4956077;28;20027;-81
2023/06/29 06:37:43;;;;;;;5.43;0.73;;;;;;;12.61;100.00;100901.56;4977592;28;20035;-81
2023/06/29 06:40:09;;;;;;;4.80;0.95;;;;;;;12.67;100.00;100899.31;4995657;28;20030;-81
2023/06/29 06:42:35;;;;;;;6.93;1.00;;;;;;;12.74;100.00;100900.41;4963192;28;20046;-81
2023/06/29 06:45:05;;;;;;;10.85;1.33;;;;;;;12.79;100.00;100903.44;4939281;28;20030;-81
2023/06/29 06:47:33;;;;;;;4.93;0.65;;;;;;;12.85;100.00;100902.03;4939889;28;20057;-81
2023/06/29 06:49:59;;;;;;;5.25;1.23;;;;;;;12.93;100.00;100906.59;4954194;28;20074;-81
2023/06/29 06:52:25;;;;;;;7.70;0.80;;;;;;;13.02;100.00;100903.03;4949554;28;20035;-81
2023/06/29 06:54:51;;;;;;;12.07;1.42;;;;;;;13.08;100.00;100901.59;4941007;28;20074;-81
2023/06/29 06:57:17;;;;;;;6.32;0.82;;;;;;;13.14;100.00;100907.16;4955232;28;20035;-82
2023/06/29 06:59:44;;;;;;;7.03;1.55;;;;;;;13.22;100.00;100902.94;4925071;29;20031;-81
2023/06/29 07:02:10;;;;;;;8.00;0.90;;;;;;;13.26;100.00;100906.94;4964286;28;20129;-81
2023/06/29 07:04:36;;;;;;;3.72;0.90;;;;;;;13.30;100.00;100905.66;4929453;29;20031;-81
2023/06/29 07:07:02;;;;;;;4.70;0.80;;;;;;;13.38;100.00;100905.72;4929991;28;20035;-80
2023/06/29 07:09:28;;;;;;;4.53;0.93;;;;;;;13.45;100.00;100908.63;4937249;28;20030;-81
2023/06/29 07:11:53;;;;;;;8.02;1.13;;;;;;;13.55;100.00;100905.09;4938637;28;20675;-82
2023/06/29 07:14:21;;;;;;;10.15;0.80;;;;;;;13.59;100.00;100901.97;4954290;28;20034;-81
2023/06/29 07:16:48;;;;;;;4.72;0.90;;;;;;;13.66;100.00;100902.19;4938630;28;20082;-82
2023/06/29 07:19:15;;;;;;;6.18;0.93;;;;;;;13.77;100.00;100911.75;4918954;28;20481;-81
2023/06/29 07:21:41;;;;;;;2.35;0.60;;;;;;;13.85;100.00;100908.31;4977118;28;20061;-81
2023/06/29 07:24:08;;;;;;;5.90;0.70;;;;;;;13.93;100.00;100916.34;4953758;28;20031;-82
2023/06/29 07:26:35;;;;;;;5.63;0.90;;;;;;;14.00;100.00;100916.53;4942219;28;20038;-81
2023/06/29 07:29:01;;;;;;;6.03;0.98;;;;;;;14.07;100.00;100906.13;4938312;28;20089;-81
2023/06/29 07:31:28;;;;;;;3.83;1.00;;;;;;;14.13;100.00;100910.81;4971326;28;20039;-81
2023/06/29 07:33:55;;;;;;;5.32;0.85;;;;;;;14.23;100.00;100913.38;4935364;28;20130;-83
2023/06/29 07:36:22;;;;;;;5.60;0.95;;;;;;;14.35;100.00;100912.13;4932292;28;20042;-82
2023/06/29 07:38:49;;;;;;;7.88;1.00;;;;;;;14.58;100.00;100908.06;4935439;28;20031;-81
2023/06/29 07:41:16;;;;;;;7.63;1.10;;;;;;;14.83;100.00;100906.38;4940795;28;20047;-81
2023/06/29 07:43:50;;;;;;;7.63;1.20;;;;;;;15.00;100.00;100904.59;4953753;28;20557;-82
2023/06/29 07:46:16;;;;;;;10.82;1.65;;;;;;;15.15;100.00;100900.47;4938956;28;20027;-80
2023/06/29 07:48:42;;;;;;;5.63;0.93;;;;;;;15.32;100.00;100904.81;4946186;28;20039;-81
2023/06/29 07:51:09;;;;;;;17.40;1.40;;;;;;;15.44;100.00;100908.00;4923625;28;20102;-82
2023/06/29 07:53:35;;;;;;;9.38;1.50;;;;;;;15.45;100.00;100903.53;4962493;28;20053;-82
2023/06/29 07:56:01;;;;;;;6.32;1.02;;;;;;;15.47;100.00;100907.69;4991281;28;20507;-82
2023/06/29 07:58:27;;;;;;;7.78;1.88;;;;;;;15.50;100.00;100901.19;4970757;28;20034;-80
2023/06/29 08:00:54;;;;;;;3.78;0.77;;;;;;;15.61;100.00;100906.19;4959449;28;20030;-81
2023/06/29 08:03:21;;;;;;;13.35;1.90;;;;;;;15.68;100.00;100902.84;4976739;28;20038;-84
2023/06/29 08:05:47;;;;;;;8.10;1.27;;;;;;;15.73;100.00;100909.38;4957600;28;20109;-82
2023/06/29 08:08:13;;;;;;;4.72;1.13;;;;;;;15.80;100.00;100901.50;4967617;28;20049;-81
2023/06/29 08:10:39;;;;;;;14.05;1.20;;;;;;;15.84;100.00;100900.19;4975684;28;20034;-80
2023/06/29 08:13:04;;;;;;;5.80;1.08;;;;;;;15.84;100.00;100905.53;4959903;28;20125;-81
2023/06/29 08:15:30;;;;;;;9.40;1.50;;;;;;;15.75;100.00;100903.88;4960276;28;20125;-81
2023/06/29 08:17:56;;;;;;;7.47;1.42;;;;;;;15.79;100.00;100907.84;4970050;28;20034;-80
2023/06/29 08:20:22;;;;;;;7.32;1.02;;;;;;;15.65;100.00;100906.69;4981517;28;20045;-81
2023/06/29 08:22:48;;;;;;;7.05;1.45;;;;;;;15.54;100.00;100904.34;4975622;28;20485;-81
2023/06/29 08:25:15;;;;;;;10.52;1.52;;;;;;;15.49;100.00;100908.34;4993431;28;20034;-81
2023/06/29 08:27:41;;;;;;;8.15;1.60;;;;;;;15.55;100.00;100906.84;4985588;28;20055;-80
2023/06/29 08:30:08;;;;;;;6.95;1.40;;;;;;;15.55;100.00;100901.53;4970930;28;21585;-80
2023/06/29 08:32:34;;;;;;;10.35;0.88;;;;;;;15.55;100.00;100900.69;4967955;28;20050;-84
2023/06/29 08:35:00;;;;;;;5.32;1.00;;;;;;;15.61;100.00;100898.19;4992993;28;20053;-82
2023/06/29 08:37:28;;;;;;;7.93;1.42;;;;;;;15.77;100.00;100896.50;4960084;28;20042;-80
2023/06/29 08:39:56;;;;;;;9.27;1.73;;;;;;;15.87;100.00;100902.50;4975876;28;20393;-81
2023/06/29 08:42:23;;;;;;;5.65;0.98;;;;;;;16.00;100.00;100895.88;4959846;28;20623;-80
2023/06/29 08:44:50;;;;;;;6.97;0.95;;;;;;;16.12;100.00;100899.00;4995056;28;20113;-83
2023/06/29 08:47:17;;;;;;;7.25;1.00;;;;;;;16.27;100.00;100896.47;4995327;28;20041;-81
2023/06/29 08:49:45;;;;;;;6.82;0.85;;;;;;;16.35;100.00;100891.13;4960038;28;20034;-81
2023/06/29 08:52:19;;;;;;;5.68;1.00;;;;;;;16.46;100.00;100886.41;4963633;28;20060;-80
2023/06/29 08:54:47;;;;;;;4.35;0.90;;;;;;;16.38;100.00;100892.59;4958008;28;20735;-80
2023/06/29 08:57:13;;;;;;;6.85;1.17;;;;;;;16.33;100.00;100898.44;4960784;28;20030;-84
2023/06/29 08:59:40;;;;;;;5.78;1.38;;;;;;;16.31;100.00;100902.31;4975265;28;20034;-84
2023/06/29 09:02:06;;;;;;;5.85;1.10;;;;;;;16.24;100.00;100891.47;4950600;28;20045;-82
2023/06/29 09:04:32;;;;;;;6.45;1.02;;;;;;;16.20;100.00;100890.97;4982400;28;20069;-80
2023/06/29 09:06:58;;;;;;;8.15;0.95;;;;;;;16.14;100.00;100894.34;4998480;28;20038;-82
2023/06/29 09:09:24;;;;;;;6.75;1.10;;;;;;;16.14;100.00;100896.16;4991382;28;20037;-81
2023/06/29 09:11:51;;;;;;;5.85;1.45;;;;;;;16.14;100.00;100896.16;4972469;28;20042;-81
2023/06/29 09:14:17;;;;;;;4.85;1.08;;;;;;;16.14;100.00;100896.16;4956992;28;20038;-81
2023/06/29 09:16:56;;;;;;;4.72;1.48;;;;;;;16.14;100.00;100901.50;4965870;28;20034;-85
2023/06/29 09:19:24;;;;;;;7.18;1.55;;;;;;;16.01;100.00;100894.84;4998804;28;20038;-84
2023/06/29 09:21:50;;;;;;;3.03;0.80;;;;;;;16.06;100.00;100889.00;4974992;28;20038;-83
2023/06/29 09:24:16;;;;;;;9.48;1.25;;;;;;;16.13;100.00;100890.00;4963222;28;20038;-80
2023/06/29 09:26:42;;;;;;;2.95;0.70;;;;;;;16.12;100.00;100888.31;4976121;28;20049;-80
2023/06/29 09:29:08;;;;;;;6.00;0.82;;;;;;;16.14;100.00;100888.16;4951890;28;20488;-81
2023/06/29 09:31:36;;;;;;;10.90;1.65;;;;;;;16.22;100.00;100885.47;4948849;28;20034;-81
2023/06/29 09:34:17;;;;;;;4.45;0.85;;;;;;;16.33;100.00;100878.94;4976501;28;20053;-84
2023/06/29 09:36:44;;;;;;;8.48;1.45;;;;;;;16.37;100.00;100881.09;4959781;28;20031;-85
2023/06/29 09:39:11;;;;;;;9.02;1.00;;;;;;;16.46;100.00;100873.06;4986030;28;20033;-81
2023/06/29 09:41:56;;;;;;;7.53;0.80;;;;;;;16.53;100.00;100871.34;4971236;28;20057;-81
2023/06/29 09:44:23;;;;;;;3.95;0.80;;;;;;;16.56;100.00;100867.53;4953514;28;20037;-79
2023/06/29 09:46:50;;;;;;;4.00;0.93;;;;;;;16.62;100.00;100866.81;4972356;28;20065;-81
2023/06/29 09:49:19;;;;;;;3.50;0.50;;;;;;;16.78;100.00;100868.59;4954108;28;20038;-81
2023/06/29 09:51:45;;;;;;;5.72;0.95;;;;;;;16.84;100.00;100873.22;4975945;28;20030;-79
2023/06/29 09:54:13;;;;;;;8.30;0.80;;;;;;;16.83;100.00;100865.38;4956000;28;20054;-80
2023/06/29 09:56:40;;;;;;;3.08;0.80;;;;;;;16.84;100.00;100865.22;4972342;28;20062;-81
2023/06/29 09:59:10;;;;;;;5.80;0.60;;;;;;;16.86;100.00;100867.69;4953349;28;20044;-79
2023/06/29 10:01:43;;;;;;;8.38;1.00;;;;;;;16.84;100.00;100859.03;4988134;28;20030;-80
2023/06/29 10:04:09;;;;;;;4.05;0.82;;;;;;;16.83;100.00;100854.72;4976327;28;20026;-80
2023/06/29 10:06:36;;;;;;;4.75;0.80;;;;;;;16.83;100.00;100852.84;4974198;28;20033;-81
2023/06/29 10:09:03;;;;;;;6.20;0.70;;;;;;;16.84;100.00;100854.53;4959397;28;20066;-81
2023/06/29 10:11:34;;;;;;;7.47;0.60;;;;;;;16.85;100.00;100855.38;4959430;28;20042;-81
2023/06/29 10:14:03;;;;;;;4.80;0.88;;;;;;;16.95;100.00;100847.13;4944696;28;20034;-84
2023/06/29 10:16:52;;;;;;;5.30;0.98;;;;;;;17.09;100.00;100845.53;4952478;28;20547;-80
2023/06/29 10:19:23;;;;;;;3.25;0.52;;;;;;;17.23;100.00;100836.75;4975100;28;20026;-80
2023/06/29 10:22:15;;;;;;;5.25;1.20;;;;;;;17.32;100.00;100834.88;4977697;28;20076;-81
2023/06/29 10:24:56;;;;;;;4.88;1.00;;;;;;;17.50;100.00;100839.06;4969112;28;20427;-85
2023/06/29 10:27:25;;;;;;;5.30;1.10;;;;;;;17.61;100.00;100837.78;4948464;28;20089;-81
2023/06/29 10:29:51;;;;;;;6.38;0.77;;;;;;;17.68;100.00;100832.53;4940440;28;20034;-82
2023/06/29 10:32:41;;;;;;;4.22;0.80;;;;;;;17.74;96.24;100834.50;4955078;28;20528;-79
2023/06/29 10:35:13;;;;;;;5.97;1.17;;;;;;;17.73;98.84;100832.81;4939725;28;20057;-80
2023/06/29 10:37:52;;;;;;;4.60;0.82;;;;;;;17.85;99.04;100838.56;4956160;28;20387;-84
2023/06/29 10:40:25;;;;;;;5.28;1.00;;;;;;;18.03;98.48;100837.38;4941577;28;20030;-86
2023/06/29 10:42:54;;;;;;;5.22;1.00;;;;;;;18.11;97.63;100815.88;4970009;28;20074;-86
2023/06/29 10:45:21;;;;;;;3.15;0.68;;;;;;;18.20;97.43;100828.16;4962396;28;20035;-84
2023/06/29 10:47:56;;;;;;;6.70;1.20;;;;;;;18.30;95.65;100829.75;4976986;28;20681;-80
2023/06/29 10:50:31;;;;;;;4.80;1.00;;;;;;;18.12;99.17;100828.28;4973857;28;20125;-80
2023/06/29 10:52:59;;;;;;;9.25;1.10;;;;;;;18.06;100.00;100842.38;4957422;28;20034;-80
2023/06/29 10:55:28;;;;;;;3.67;0.90;;;;;;;17.93;100.00;100837.66;4948259;28;20062;-80
2023/06/29 10:57:58;;;;;;;4.65;0.80;;;;;;;17.84;100.00;100834.22;4972571;28;20100;-81
2023/06/29 11:00:25;;;;;;;3.83;0.82;;;;;;;17.97;100.00;100823.72;4970675;28;20066;-82
2023/06/29 11:02:52;;;;;;;8.25;1.42;;;;;;;18.24;100.00;100825.94;4957820;28;20043;-82
2023/06/29 11:05:20;;;;;;;2.78;0.70;;;;;;;18.26;100.00;100820.41;4957771;28;20138;-80
2023/06/29 11:07:52;;;;;;;7.10;0.90;;;;;;;18.27;100.00;100824.78;4974847;28;20030;-81
2023/06/29 11:10:20;;;;;;;6.50;0.80;;;;;;;18.20;100.00;100830.84;4957749;28;20034;-81
2023/06/29 11:12:49;;;;;;;5.28;1.02;;;;;;;17.97;100.00;100821.06;4969974;28;20030;-82
2023/06/29 11:15:17;;;;;;;4.65;0.95;;;;;;;17.71;100.00;100827.66;4955290;28;20058;-81
2023/06/29 11:17:44;;;;;;;4.40;1.27;;;;;;;17.53;100.00;100837.88;4970210;28;20507;-81